San Francisco, CA (94128)

2:40 PM PDT on August 30, 2015 (GMT -0700)
bel air | | Change Station
CLOSE
Current Station
Personal Weather Station
Location: San Bruno, CA
Elevation: 7 ft
Nearby Weather Stations

Elev 7 ft 37.63 °N, 122.41 °W | Updated 13 minutes ago

Partly Cloudy
Partly Cloudy
73.8 °F
Feels Like 76 °F
N
7.8
Wind Variable Wind from West

Today
High -- | Low -- °F
--% Chance of Precip.
Yesterday
High -- | Low -- °F
Precip. -- in
6:37 AM 7:41 PM
Full, 98% visible
Pressure 30.04 in
Visibility 10.0 miles
Clouds Few 1500 ft
Heat Index 76 °F
Dew Point 62 °F
Humidity 67%
Rainfall 0.00 in
Snow Depth Not available.
UV 9 out of 12
Pollen 6.40 out of 12
Air Quality Not available.
Flu Activity Not available.
METAR KSFO 302056Z 28023G28KT 10SM FEW015 23/13 A3003 RMK AO2 PK WND 28029/2037 SLP170 T02330133 58010 $
Pressure 30.04 in
Visibility 10.0 miles
Clouds Few 1500 ft
Heat Index 76 °F
Dew Point 62 °F
Humidity 67%
Rainfall 0.00 in
Snow Depth Not available.
UV 9 out of 12
Pollen 6.40 out of 12
Air Quality Not available.
Flu Activity Not available.
METAR KSFO 302056Z 28023G28KT 10SM FEW015 23/13 A3003 RMK AO2 PK WND 28029/2037 SLP170 T02330133 58010 $

10-Day Weather Forecast

×

Almanac

Astronomy

Aug. 30, 2015 Rise Set
Actual Time
Civil Twilight
Nautical Twilight
Astronomical Twilight
Moon
Length of Visible Light
Length of Day
Tomorrow will be .
, % of the Moon is Illuminated

Today's Extremes

State Highs State Lows

Community

WunderPhotos

Upload Photos

1,851,063 photos uploaded!

WunderBlogs® & News

Nearby

Air Quality

  Air Quality AQ Index Pollutant
Not available.

Snow Depth

Station Depth Elevation

Earthquake Activity

City Distance Mag. Time & Date
Minimum magnitude displayed is 2.5.

Coastal Water Temperatures

Place Temperature

Stations

Nearby Weather Stations

Station Location Temp. Windchill Dew Point Humidity Wind Precip. Elev Updated Type